sensor_id;sensor_type;location;lat;lon;timestamp;P1;durP1;ratioP1;P2;durP2;ratioP2
60969;SDS011;46841;48.938;9.502;2024-03-08T00:00:22;1.10;;;1.10;;
60969;SDS011;46841;48.938;9.502;2024-03-08T00:02:48;1.10;;;1.10;;
60969;SDS011;46841;48.938;9.502;2024-03-08T00:05:15;1.10;;;1.10;;
60969;SDS011;46841;48.938;9.502;2024-03-08T00:07:41;1.10;;;1.10;;
60969;SDS011;46841;48.938;9.502;2024-03-08T00:10:07;1.00;;;1.00;;
60969;SDS011;46841;48.938;9.502;2024-03-08T00:12:36;1.10;;;1.10;;
60969;SDS011;46841;48.938;9.502;2024-03-08T00:15:02;1.00;;;1.00;;
60969;SDS011;46841;48.938;9.502;2024-03-08T00:17:28;1.00;;;1.00;;
60969;SDS011;46841;48.938;9.502;2024-03-08T00:19:53;1.05;;;1.05;;
60969;SDS011;46841;48.938;9.502;2024-03-08T00:22:19;1.10;;;1.10;;
60969;SDS011;46841;48.938;9.502;2024-03-08T00:24:45;1.00;;;1.00;;
60969;SDS011;46841;48.938;9.502;2024-03-08T00:27:11;1.00;;;1.00;;
60969;SDS011;46841;48.938;9.502;2024-03-08T00:29:37;1.10;;;1.10;;
60969;SDS011;46841;48.938;9.502;2024-03-08T00:32:04;1.07;;;1.07;;
60969;SDS011;46841;48.938;9.502;2024-03-08T00:34:29;1.10;;;1.10;;
60969;SDS011;46841;48.938;9.502;2024-03-08T00:36:56;1.00;;;1.00;;
60969;SDS011;46841;48.938;9.502;2024-03-08T00:39:23;1.10;;;1.10;;
60969;SDS011;46841;48.938;9.502;2024-03-08T00:41:49;1.10;;;1.10;;
60969;SDS011;46841;48.938;9.502;2024-03-08T00:44:14;1.10;;;1.10;;
60969;SDS011;46841;48.938;9.502;2024-03-08T00:46:40;1.10;;;1.10;;
60969;SDS011;46841;48.938;9.502;2024-03-08T00:49:05;1.00;;;1.00;;
60969;SDS011;46841;48.938;9.502;2024-03-08T00:51:31;1.10;;;1.10;;
60969;SDS011;46841;48.938;9.502;2024-03-08T00:53:57;1.00;;;1.00;;
60969;SDS011;46841;48.938;9.502;2024-03-08T00:56:23;1.20;;;1.20;;
60969;SDS011;46841;48.938;9.502;2024-03-08T00:58:50;1.15;;;1.15;;
60969;SDS011;46841;48.938;9.502;2024-03-08T01:01:16;1.10;;;1.10;;
60969;SDS011;46841;48.938;9.502;2024-03-08T01:03:43;0.95;;;0.95;;
60969;SDS011;46841;48.938;9.502;2024-03-08T01:06:09;1.00;;;1.00;;
60969;SDS011;46841;48.938;9.502;2024-03-08T01:08:34;1.00;;;1.00;;
60969;SDS011;46841;48.938;9.502;2024-03-08T01:11:00;1.00;;;1.00;;
60969;SDS011;46841;48.938;9.502;2024-03-08T01:13:25;1.10;;;1.10;;
60969;SDS011;46841;48.938;9.502;2024-03-08T01:15:51;1.20;;;1.20;;
60969;SDS011;46841;48.938;9.502;2024-03-08T01:18:16;1.10;;;1.10;;
60969;SDS011;46841;48.938;9.502;2024-03-08T01:20:42;1.20;;;1.20;;
60969;SDS011;46841;48.938;9.502;2024-03-08T01:23:07;1.02;;;1.02;;
60969;SDS011;46841;48.938;9.502;2024-03-08T01:25:35;1.08;;;1.08;;
60969;SDS011;46841;48.938;9.502;2024-03-08T01:28:01;1.05;;;1.05;;
60969;SDS011;46841;48.938;9.502;2024-03-08T01:30:27;1.00;;;1.00;;
60969;SDS011;46841;48.938;9.502;2024-03-08T01:32:53;1.10;;;1.10;;
60969;SDS011;46841;48.938;9.502;2024-03-08T01:35:18;1.00;;;1.00;;
60969;SDS011;46841;48.938;9.502;2024-03-08T01:37:44;1.10;;;1.10;;
60969;SDS011;46841;48.938;9.502;2024-03-08T01:40:09;1.05;;;1.05;;
60969;SDS011;46841;48.938;9.502;2024-03-08T01:42:35;1.10;;;1.10;;
60969;SDS011;46841;48.938;9.502;2024-03-08T01:45:04;1.10;;;1.10;;
60969;SDS011;46841;48.938;9.502;2024-03-08T01:47:34;1.10;;;1.10;;
60969;SDS011;46841;48.938;9.502;2024-03-08T01:50:00;1.10;;;1.10;;
60969;SDS011;46841;48.938;9.502;2024-03-08T01:52:31;1.00;;;1.00;;
60969;SDS011;46841;48.938;9.502;2024-03-08T01:54:57;1.10;;;1.10;;
60969;SDS011;46841;48.938;9.502;2024-03-08T01:57:34;1.10;;;1.10;;
60969;SDS011;46841;48.938;9.502;2024-03-08T02:00:03;1.10;;;1.10;;
60969;SDS011;46841;48.938;9.502;2024-03-08T02:02:32;1.00;;;1.00;;
60969;SDS011;46841;48.938;9.502;2024-03-08T02:05:02;1.10;;;1.10;;
60969;SDS011;46841;48.938;9.502;2024-03-08T02:07:30;1.10;;;1.10;;
60969;SDS011;46841;48.938;9.502;2024-03-08T02:09:55;1.10;;;1.10;;
60969;SDS011;46841;48.938;9.502;2024-03-08T02:12:20;1.10;;;1.10;;
60969;SDS011;46841;48.938;9.502;2024-03-08T02:14:46;1.10;;;1.10;;
60969;SDS011;46841;48.938;9.502;2024-03-08T02:17:12;1.10;;;1.10;;
60969;SDS011;46841;48.938;9.502;2024-03-08T02:19:38;1.10;;;1.10;;
60969;SDS011;46841;48.938;9.502;2024-03-08T02:22:03;1.13;;;1.13;;
60969;SDS011;46841;48.938;9.502;2024-03-08T02:24:29;1.13;;;1.13;;
60969;SDS011;46841;48.938;9.502;2024-03-08T02:26:55;1.10;;;1.10;;
60969;SDS011;46841;48.938;9.502;2024-03-08T02:29:21;1.10;;;1.10;;
60969;SDS011;46841;48.938;9.502;2024-03-08T02:31:50;1.10;;;1.10;;
60969;SDS011;46841;48.938;9.502;2024-03-08T02:34:16;0.95;;;0.95;;
60969;SDS011;46841;48.938;9.502;2024-03-08T02:36:41;1.10;;;1.10;;
60969;SDS011;46841;48.938;9.502;2024-03-08T02:39:07;1.10;;;1.10;;
60969;SDS011;46841;48.938;9.502;2024-03-08T02:41:33;1.10;;;1.10;;
60969;SDS011;46841;48.938;9.502;2024-03-08T02:43:58;1.10;;;1.10;;
60969;SDS011;46841;48.938;9.502;2024-03-08T02:46:25;1.10;;;1.10;;
60969;SDS011;46841;48.938;9.502;2024-03-08T02:48:50;1.10;;;1.10;;
60969;SDS011;46841;48.938;9.502;2024-03-08T02:51:16;1.10;;;1.10;;
60969;SDS011;46841;48.938;9.502;2024-03-08T02:53:41;1.10;;;1.10;;
60969;SDS011;46841;48.938;9.502;2024-03-08T02:56:08;1.20;;;1.20;;
60969;SDS011;46841;48.938;9.502;2024-03-08T02:58:38;1.10;;;1.10;;
60969;SDS011;46841;48.938;9.502;2024-03-08T03:01:03;1.10;;;1.10;;
60969;SDS011;46841;48.938;9.502;2024-03-08T03:03:28;1.10;;;1.10;;
60969;SDS011;46841;48.938;9.502;2024-03-08T03:05:54;1.10;;;1.10;;
60969;SDS011;46841;48.938;9.502;2024-03-08T03:08:22;1.10;;;1.10;;
60969;SDS011;46841;48.938;9.502;2024-03-08T03:10:49;1.10;;;1.10;;
60969;SDS011;46841;48.938;9.502;2024-03-08T03:13:14;1.10;;;1.10;;
60969;SDS011;46841;48.938;9.502;2024-03-08T03:15:40;1.10;;;1.10;;
60969;SDS011;46841;48.938;9.502;2024-03-08T03:18:09;1.10;;;1.10;;
60969;SDS011;46841;48.938;9.502;2024-03-08T03:20:34;1.10;;;1.10;;
60969;SDS011;46841;48.938;9.502;2024-03-08T03:23:05;1.13;;;1.13;;
60969;SDS011;46841;48.938;9.502;2024-03-08T03:25:33;1.10;;;1.10;;
60969;SDS011;46841;48.938;9.502;2024-03-08T03:28:03;1.10;;;1.10;;
60969;SDS011;46841;48.938;9.502;2024-03-08T03:30:29;1.10;;;1.10;;
60969;SDS011;46841;48.938;9.502;2024-03-08T03:33:01;1.10;;;1.10;;
60969;SDS011;46841;48.938;9.502;2024-03-08T03:35:31;1.20;;;1.20;;
60969;SDS011;46841;48.938;9.502;2024-03-08T03:37:57;1.10;;;1.10;;
60969;SDS011;46841;48.938;9.502;2024-03-08T03:40:39;1.10;;;1.10;;
60969;SDS011;46841;48.938;9.502;2024-03-08T03:43:07;1.10;;;1.10;;
60969;SDS011;46841;48.938;9.502;2024-03-08T03:45:35;1.10;;;1.10;;
60969;SDS011;46841;48.938;9.502;2024-03-08T03:48:07;1.10;;;1.10;;
60969;SDS011;46841;48.938;9.502;2024-03-08T03:50:36;1.10;;;1.10;;
60969;SDS011;46841;48.938;9.502;2024-03-08T03:53:01;1.10;;;1.10;;
60969;SDS011;46841;48.938;9.502;2024-03-08T03:55:28;1.20;;;1.20;;
60969;SDS011;46841;48.938;9.502;2024-03-08T03:57:54;1.10;;;1.10;;
60969;SDS011;46841;48.938;9.502;2024-03-08T04:00:19;1.20;;;1.20;;
60969;SDS011;46841;48.938;9.502;2024-03-08T04:02:45;1.10;;;1.10;;
60969;SDS011;46841;48.938;9.502;2024-03-08T04:05:11;1.10;;;1.10;;
60969;SDS011;46841;48.938;9.502;2024-03-08T04:07:38;1.10;;;1.10;;
60969;SDS011;46841;48.938;9.502;2024-03-08T04:10:04;1.20;;;1.20;;
60969;SDS011;46841;48.938;9.502;2024-03-08T04:12:34;1.00;;;1.00;;
60969;SDS011;46841;48.938;9.502;2024-03-08T04:15:00;1.10;;;1.10;;
60969;SDS011;46841;48.938;9.502;2024-03-08T04:17:26;1.10;;;1.10;;
60969;SDS011;46841;48.938;9.502;2024-03-08T04:19:52;1.10;;;1.10;;
60969;SDS011;46841;48.938;9.502;2024-03-08T04:22:17;1.10;;;1.10;;
60969;SDS011;46841;48.938;9.502;2024-03-08T04:24:43;1.10;;;1.10;;
60969;SDS011;46841;48.938;9.502;2024-03-08T04:27:09;1.20;;;1.20;;
60969;SDS011;46841;48.938;9.502;2024-03-08T04:29:35;1.10;;;1.10;;
60969;SDS011;46841;48.938;9.502;2024-03-08T04:32:02;1.10;;;1.10;;
60969;SDS011;46841;48.938;9.502;2024-03-08T04:34:28;1.10;;;1.10;;
60969;SDS011;46841;48.938;9.502;2024-03-08T04:36:56;1.00;;;1.00;;
60969;SDS011;46841;48.938;9.502;2024-03-08T04:39:22;1.00;;;1.00;;
60969;SDS011;46841;48.938;9.502;2024-03-08T04:41:48;1.20;;;1.20;;
60969;SDS011;46841;48.938;9.502;2024-03-08T04:44:14;1.20;;;1.20;;
60969;SDS011;46841;48.938;9.502;2024-03-08T04:46:40;1.10;;;1.10;;
60969;SDS011;46841;48.938;9.502;2024-03-08T04:49:06;1.10;;;1.10;;
60969;SDS011;46841;48.938;9.502;2024-03-08T04:51:32;1.10;;;1.10;;
60969;SDS011;46841;48.938;9.502;2024-03-08T04:53:58;1.20;;;1.20;;
60969;SDS011;46841;48.938;9.502;2024-03-08T04:56:25;1.10;;;1.10;;
60969;SDS011;46841;48.938;9.502;2024-03-08T04:58:50;1.10;;;1.10;;
60969;SDS011;46841;48.938;9.502;2024-03-08T05:01:16;1.10;;;1.10;;
60969;SDS011;46841;48.938;9.502;2024-03-08T05:03:42;1.10;;;1.10;;
60969;SDS011;46841;48.938;9.502;2024-03-08T05:06:07;1.10;;;1.10;;
60969;SDS011;46841;48.938;9.502;2024-03-08T05:08:33;1.10;;;1.10;;
60969;SDS011;46841;48.938;9.502;2024-03-08T05:10:59;1.10;;;1.10;;
60969;SDS011;46841;48.938;9.502;2024-03-08T05:13:29;1.20;;;1.20;;
60969;SDS011;46841;48.938;9.502;2024-03-08T05:15:56;1.20;;;1.20;;
60969;SDS011;46841;48.938;9.502;2024-03-08T05:18:23;1.10;;;1.10;;
60969;SDS011;46841;48.938;9.502;2024-03-08T05:20:49;1.10;;;1.10;;
60969;SDS011;46841;48.938;9.502;2024-03-08T05:23:15;1.10;;;1.10;;
60969;SDS011;46841;48.938;9.502;2024-03-08T05:25:40;1.10;;;1.10;;
60969;SDS011;46841;48.938;9.502;2024-03-08T05:28:06;1.20;;;1.20;;
60969;SDS011;46841;48.938;9.502;2024-03-08T05:30:32;1.10;;;1.10;;
60969;SDS011;46841;48.938;9.502;2024-03-08T05:32:57;1.20;;;1.20;;
60969;SDS011;46841;48.938;9.502;2024-03-08T05:35:23;1.10;;;1.10;;
60969;SDS011;46841;48.938;9.502;2024-03-08T05:37:50;1.13;;;1.13;;
60969;SDS011;46841;48.938;9.502;2024-03-08T05:40:16;1.10;;;1.10;;
60969;SDS011;46841;48.938;9.502;2024-03-08T05:42:41;1.10;;;1.10;;
60969;SDS011;46841;48.938;9.502;2024-03-08T05:45:07;1.10;;;1.10;;
60969;SDS011;46841;48.938;9.502;2024-03-08T05:47:33;1.10;;;1.10;;
60969;SDS011;46841;48.938;9.502;2024-03-08T05:49:58;1.10;;;1.10;;
60969;SDS011;46841;48.938;9.502;2024-03-08T05:52:25;1.20;;;1.20;;
60969;SDS011;46841;48.938;9.502;2024-03-08T05:54:51;1.10;;;1.10;;
60969;SDS011;46841;48.938;9.502;2024-03-08T05:57:18;1.10;;;1.10;;
60969;SDS011;46841;48.938;9.502;2024-03-08T05:59:44;1.10;;;1.10;;
60969;SDS011;46841;48.938;9.502;2024-03-08T06:02:09;1.02;;;1.02;;
60969;SDS011;46841;48.938;9.502;2024-03-08T06:04:35;1.00;;;1.00;;
60969;SDS011;46841;48.938;9.502;2024-03-08T06:07:00;1.10;;;1.10;;
60969;SDS011;46841;48.938;9.502;2024-03-08T06:09:28;1.02;;;1.02;;
60969;SDS011;46841;48.938;9.502;2024-03-08T06:11:54;1.10;;;1.10;;
60969;SDS011;46841;48.938;9.502;2024-03-08T06:14:20;1.10;;;1.10;;
60969;SDS011;46841;48.938;9.502;2024-03-08T06:16:46;1.00;;;1.00;;
60969;SDS011;46841;48.938;9.502;2024-03-08T06:19:12;1.10;;;1.10;;
60969;SDS011;46841;48.938;9.502;2024-03-08T06:21:39;1.10;;;1.10;;
60969;SDS011;46841;48.938;9.502;2024-03-08T06:24:06;1.10;;;1.10;;
60969;SDS011;46841;48.938;9.502;2024-03-08T06:26:31;1.20;;;1.20;;
60969;SDS011;46841;48.938;9.502;2024-03-08T06:28:57;1.10;;;1.10;;
60969;SDS011;46841;48.938;9.502;2024-03-08T06:31:22;1.20;;;1.20;;
60969;SDS011;46841;48.938;9.502;2024-03-08T06:33:48;1.10;;;1.10;;
60969;SDS011;46841;48.938;9.502;2024-03-08T06:36:19;1.10;;;1.10;;
60969;SDS011;46841;48.938;9.502;2024-03-08T06:38:48;1.05;;;1.05;;
60969;SDS011;46841;48.938;9.502;2024-03-08T06:41:15;1.10;;;1.10;;
60969;SDS011;46841;48.938;9.502;2024-03-08T06:43:41;1.10;;;1.10;;
60969;SDS011;46841;48.938;9.502;2024-03-08T06:46:07;1.10;;;1.10;;
60969;SDS011;46841;48.938;9.502;2024-03-08T06:48:33;1.00;;;1.00;;
60969;SDS011;46841;48.938;9.502;2024-03-08T06:50:59;1.10;;;1.10;;
60969;SDS011;46841;48.938;9.502;2024-03-08T06:53:24;1.00;;;1.00;;
60969;SDS011;46841;48.938;9.502;2024-03-08T06:55:51;1.00;;;1.00;;
60969;SDS011;46841;48.938;9.502;2024-03-08T06:58:16;1.00;;;1.00;;
60969;SDS011;46841;48.938;9.502;2024-03-08T07:00:42;1.10;;;1.10;;
60969;SDS011;46841;48.938;9.502;2024-03-08T07:03:07;1.10;;;1.10;;
60969;SDS011;46841;48.938;9.502;2024-03-08T07:05:37;1.08;;;1.08;;
60969;SDS011;46841;48.938;9.502;2024-03-08T07:08:03;1.00;;;1.00;;
60969;SDS011;46841;48.938;9.502;2024-03-08T07:10:29;1.00;;;1.00;;
60969;SDS011;46841;48.938;9.502;2024-03-08T07:12:54;1.00;;;1.00;;
60969;SDS011;46841;48.938;9.502;2024-03-08T07:15:20;1.00;;;1.00;;
60969;SDS011;46841;48.938;9.502;2024-03-08T07:17:46;0.98;;;0.98;;
60969;SDS011;46841;48.938;9.502;2024-03-08T07:20:12;1.10;;;1.10;;
60969;SDS011;46841;48.938;9.502;2024-03-08T07:22:47;1.02;;;1.02;;
60969;SDS011;46841;48.938;9.502;2024-03-08T07:25:19;1.10;;;1.10;;
60969;SDS011;46841;48.938;9.502;2024-03-08T07:27:52;1.10;;;1.10;;
60969;SDS011;46841;48.938;9.502;2024-03-08T07:30:23;1.10;;;1.10;;
60969;SDS011;46841;48.938;9.502;2024-03-08T07:33:08;1.10;;;1.10;;
60969;SDS011;46841;48.938;9.502;2024-03-08T07:35:40;1.00;;;1.00;;
60969;SDS011;46841;48.938;9.502;2024-03-08T07:38:07;1.10;;;1.10;;
60969;SDS011;46841;48.938;9.502;2024-03-08T07:43:09;1.10;;;1.10;;
60969;SDS011;46841;48.938;9.502;2024-03-08T07:48:07;1.10;;;1.10;;
60969;SDS011;46841;48.938;9.502;2024-03-08T07:50:38;1.00;;;1.00;;
60969;SDS011;46841;48.938;9.502;2024-03-08T07:53:05;1.10;;;1.10;;
60969;SDS011;46841;48.938;9.502;2024-03-08T07:55:34;1.00;;;1.00;;
60969;SDS011;46841;48.938;9.502;2024-03-08T07:58:00;1.10;;;1.10;;
60969;SDS011;46841;48.938;9.502;2024-03-08T08:00:26;1.10;;;1.10;;
60969;SDS011;46841;48.938;9.502;2024-03-08T08:02:53;1.00;;;1.00;;
60969;SDS011;46841;48.938;9.502;2024-03-08T08:05:18;1.10;;;1.10;;
60969;SDS011;46841;48.938;9.502;2024-03-08T08:07:44;1.00;;;1.00;;
60969;SDS011;46841;48.938;9.502;2024-03-08T08:10:11;1.10;;;1.10;;
60969;SDS011;46841;48.938;9.502;2024-03-08T08:12:46;1.00;;;1.00;;
60969;SDS011;46841;48.938;9.502;2024-03-08T08:15:15;1.10;;;1.10;;
60969;SDS011;46841;48.938;9.502;2024-03-08T08:17:44;1.10;;;1.10;;
60969;SDS011;46841;48.938;9.502;2024-03-08T08:20:10;1.00;;;1.00;;
60969;SDS011;46841;48.938;9.502;2024-03-08T08:22:38;1.10;;;1.10;;
60969;SDS011;46841;48.938;9.502;2024-03-08T08:25:08;1.00;;;1.00;;
60969;SDS011;46841;48.938;9.502;2024-03-08T08:27:34;1.10;;;1.10;;
60969;SDS011;46841;48.938;9.502;2024-03-08T08:32:29;1.10;;;1.10;;
60969;SDS011;46841;48.938;9.502;2024-03-08T08:34:55;1.00;;;1.00;;
60969;SDS011;46841;48.938;9.502;2024-03-08T08:37:21;1.00;;;1.00;;
60969;SDS011;46841;48.938;9.502;2024-03-08T08:39:48;1.10;;;1.10;;
60969;SDS011;46841;48.938;9.502;2024-03-08T08:42:16;1.10;;;1.10;;
60969;SDS011;46841;48.938;9.502;2024-03-08T08:44:42;1.10;;;1.10;;
60969;SDS011;46841;48.938;9.502;2024-03-08T08:47:08;1.10;;;1.10;;
60969;SDS011;46841;48.938;9.502;2024-03-08T08:49:34;1.10;;;1.10;;
60969;SDS011;46841;48.938;9.502;2024-03-08T08:52:00;1.02;;;1.02;;
60969;SDS011;46841;48.938;9.502;2024-03-08T08:54:26;1.00;;;1.00;;
60969;SDS011;46841;48.938;9.502;2024-03-08T08:56:52;1.10;;;1.10;;
60969;SDS011;46841;48.938;9.502;2024-03-08T08:59:19;1.10;;;1.10;;
60969;SDS011;46841;48.938;9.502;2024-03-08T09:01:45;1.05;;;1.05;;
60969;SDS011;46841;48.938;9.502;2024-03-08T09:04:15;1.10;;;1.10;;
60969;SDS011;46841;48.938;9.502;2024-03-08T09:06:41;1.10;;;1.10;;
60969;SDS011;46841;48.938;9.502;2024-03-08T09:09:07;1.10;;;1.10;;
60969;SDS011;46841;48.938;9.502;2024-03-08T09:11:38;1.10;;;1.10;;
60969;SDS011;46841;48.938;9.502;2024-03-08T09:14:07;1.10;;;1.10;;
60969;SDS011;46841;48.938;9.502;2024-03-08T09:16:32;1.10;;;1.10;;
60969;SDS011;46841;48.938;9.502;2024-03-08T09:18:58;1.00;;;1.00;;
60969;SDS011;46841;48.938;9.502;2024-03-08T09:21:23;1.10;;;1.10;;
60969;SDS011;46841;48.938;9.502;2024-03-08T09:23:49;1.00;;;1.00;;
60969;SDS011;46841;48.938;9.502;2024-03-08T09:26:15;1.00;;;1.00;;
60969;SDS011;46841;48.938;9.502;2024-03-08T09:28:40;1.10;;;1.10;;
60969;SDS011;46841;48.938;9.502;2024-03-08T09:31:06;1.00;;;1.00;;
60969;SDS011;46841;48.938;9.502;2024-03-08T09:33:31;1.00;;;1.00;;
60969;SDS011;46841;48.938;9.502;2024-03-08T09:35:57;1.00;;;1.00;;
60969;SDS011;46841;48.938;9.502;2024-03-08T09:38:25;1.00;;;1.00;;
60969;SDS011;46841;48.938;9.502;2024-03-08T09:40:52;1.00;;;1.00;;
60969;SDS011;46841;48.938;9.502;2024-03-08T09:45:43;1.00;;;1.00;;
60969;SDS011;46841;48.938;9.502;2024-03-08T09:48:11;1.00;;;1.00;;
60969;SDS011;46841;48.938;9.502;2024-03-08T09:50:41;1.00;;;1.00;;
60969;SDS011;46841;48.938;9.502;2024-03-08T09:53:07;1.00;;;1.00;;
60969;SDS011;46841;48.938;9.502;2024-03-08T09:55:37;1.00;;;1.00;;
60969;SDS011;46841;48.938;9.502;2024-03-08T09:58:07;1.00;;;1.00;;
60969;SDS011;46841;48.938;9.502;2024-03-08T10:00:53;1.00;;;1.00;;
60969;SDS011;46841;48.938;9.502;2024-03-08T10:03:22;1.00;;;1.00;;
60969;SDS011;46841;48.938;9.502;2024-03-08T10:05:50;0.90;;;0.90;;
60969;SDS011;46841;48.938;9.502;2024-03-08T10:08:15;1.00;;;1.00;;
60969;SDS011;46841;48.938;9.502;2024-03-08T10:10:40;0.90;;;0.90;;
60969;SDS011;46841;48.938;9.502;2024-03-08T10:13:06;1.00;;;1.00;;
60969;SDS011;46841;48.938;9.502;2024-03-08T10:15:32;1.00;;;1.00;;
60969;SDS011;46841;48.938;9.502;2024-03-08T10:17:58;0.80;;;0.80;;
60969;SDS011;46841;48.938;9.502;2024-03-08T10:20:24;1.00;;;1.00;;
60969;SDS011;46841;48.938;9.502;2024-03-08T10:22:54;0.70;;;0.70;;
60969;SDS011;46841;48.938;9.502;2024-03-08T10:25:21;0.70;;;0.70;;
60969;SDS011;46841;48.938;9.502;2024-03-08T10:27:47;0.80;;;0.80;;
60969;SDS011;46841;48.938;9.502;2024-03-08T10:30:15;0.70;;;0.70;;
60969;SDS011;46841;48.938;9.502;2024-03-08T10:32:45;0.80;;;0.80;;
60969;SDS011;46841;48.938;9.502;2024-03-08T10:35:18;0.70;;;0.70;;
60969;SDS011;46841;48.938;9.502;2024-03-08T10:37:47;0.80;;;0.80;;
60969;SDS011;46841;48.938;9.502;2024-03-08T10:40:25;0.60;;;0.60;;
60969;SDS011;46841;48.938;9.502;2024-03-08T10:42:55;0.80;;;0.80;;
60969;SDS011;46841;48.938;9.502;2024-03-08T10:45:38;0.80;;;0.80;;
60969;SDS011;46841;48.938;9.502;2024-03-08T10:51:00;0.80;;;0.80;;
60969;SDS011;46841;48.938;9.502;2024-03-08T10:53:31;0.73;;;0.73;;
60969;SDS011;46841;48.938;9.502;2024-03-08T10:55:59;0.70;;;0.70;;
60969;SDS011;46841;48.938;9.502;2024-03-08T10:58:26;0.80;;;0.80;;
60969;SDS011;46841;48.938;9.502;2024-03-08T11:00:53;0.70;;;0.70;;
60969;SDS011;46841;48.938;9.502;2024-03-08T11:06:08;0.85;;;0.85;;
60969;SDS011;46841;48.938;9.502;2024-03-08T11:08:36;0.80;;;0.80;;
60969;SDS011;46841;48.938;9.502;2024-03-08T11:11:09;0.80;;;0.80;;
60969;SDS011;46841;48.938;9.502;2024-03-08T11:13:58;0.80;;;0.80;;
60969;SDS011;46841;48.938;9.502;2024-03-08T11:19:23;0.80;;;0.80;;
60969;SDS011;46841;48.938;9.502;2024-03-08T11:21:58;0.80;;;0.80;;
60969;SDS011;46841;48.938;9.502;2024-03-08T11:24:36;0.73;;;0.73;;
60969;SDS011;46841;48.938;9.502;2024-03-08T11:29:38;0.80;;;0.80;;
60969;SDS011;46841;48.938;9.502;2024-03-08T11:32:10;0.80;;;0.80;;
60969;SDS011;46841;48.938;9.502;2024-03-08T11:34:45;0.80;;;0.80;;
60969;SDS011;46841;48.938;9.502;2024-03-08T11:37:14;0.70;;;0.70;;
60969;SDS011;46841;48.938;9.502;2024-03-08T11:39:55;0.75;;;0.75;;
60969;SDS011;46841;48.938;9.502;2024-03-08T11:42:35;0.60;;;0.60;;
60969;SDS011;46841;48.938;9.502;2024-03-08T11:45:07;0.70;;;0.70;;
60969;SDS011;46841;48.938;9.502;2024-03-08T11:47:38;0.63;;;0.63;;
60969;SDS011;46841;48.938;9.502;2024-03-08T11:50:05;0.60;;;0.60;;
60969;SDS011;46841;48.938;9.502;2024-03-08T11:52:36;0.65;;;0.65;;
60969;SDS011;46841;48.938;9.502;2024-03-08T11:55:05;0.60;;;0.60;;
60969;SDS011;46841;48.938;9.502;2024-03-08T11:57:31;0.60;;;0.60;;
60969;SDS011;46841;48.938;9.502;2024-03-08T11:59:58;0.50;;;0.50;;
60969;SDS011;46841;48.938;9.502;2024-03-08T12:02:33;0.60;;;0.60;;
60969;SDS011;46841;48.938;9.502;2024-03-08T12:05:04;0.60;;;0.60;;
60969;SDS011;46841;48.938;9.502;2024-03-08T12:07:35;0.60;;;0.60;;
60969;SDS011;46841;48.938;9.502;2024-03-08T12:10:17;0.60;;;0.60;;
60969;SDS011;46841;48.938;9.502;2024-03-08T12:12:47;0.60;;;0.60;;
60969;SDS011;46841;48.938;9.502;2024-03-08T12:15:22;0.60;;;0.60;;
60969;SDS011;46841;48.938;9.502;2024-03-08T12:17:49;0.60;;;0.60;;
60969;SDS011;46841;48.938;9.502;2024-03-08T12:22:49;0.60;;;0.60;;
60969;SDS011;46841;48.938;9.502;2024-03-08T12:25:17;0.60;;;0.60;;
60969;SDS011;46841;48.938;9.502;2024-03-08T12:27:43;0.60;;;0.60;;
60969;SDS011;46841;48.938;9.502;2024-03-08T12:30:19;0.50;;;0.50;;
60969;SDS011;46841;48.938;9.502;2024-03-08T12:35:22;0.60;;;0.60;;
60969;SDS011;46841;48.938;9.502;2024-03-08T12:40:18;0.60;;;0.60;;
60969;SDS011;46841;48.938;9.502;2024-03-08T12:42:50;0.60;;;0.60;;
60969;SDS011;46841;48.938;9.502;2024-03-08T12:45:16;0.60;;;0.60;;
60969;SDS011;46841;48.938;9.502;2024-03-08T12:47:41;0.50;;;0.50;;
60969;SDS011;46841;48.938;9.502;2024-03-08T12:50:07;0.50;;;0.50;;
60969;SDS011;46841;48.938;9.502;2024-03-08T12:54:59;0.70;;;0.70;;
60969;SDS011;46841;48.938;9.502;2024-03-08T12:57:32;0.60;;;0.60;;
60969;SDS011;46841;48.938;9.502;2024-03-08T12:59:59;0.60;;;0.60;;
60969;SDS011;46841;48.938;9.502;2024-03-08T13:02:26;0.63;;;0.63;;
60969;SDS011;46841;48.938;9.502;2024-03-08T13:04:53;0.60;;;0.60;;
60969;SDS011;46841;48.938;9.502;2024-03-08T13:07:25;0.60;;;0.60;;
60969;SDS011;46841;48.938;9.502;2024-03-08T13:09:52;0.60;;;0.60;;
60969;SDS011;46841;48.938;9.502;2024-03-08T13:12:19;0.60;;;0.60;;
60969;SDS011;46841;48.938;9.502;2024-03-08T13:14:45;0.60;;;0.60;;
60969;SDS011;46841;48.938;9.502;2024-03-08T13:17:11;0.70;;;0.70;;
60969;SDS011;46841;48.938;9.502;2024-03-08T13:19:38;0.60;;;0.60;;
60969;SDS011;46841;48.938;9.502;2024-03-08T13:22:04;0.60;;;0.60;;
60969;SDS011;46841;48.938;9.502;2024-03-08T13:24:30;0.60;;;0.60;;
60969;SDS011;46841;48.938;9.502;2024-03-08T13:26:55;0.60;;;0.60;;
60969;SDS011;46841;48.938;9.502;2024-03-08T13:29:21;0.60;;;0.60;;
60969;SDS011;46841;48.938;9.502;2024-03-08T13:31:48;0.60;;;0.60;;
60969;SDS011;46841;48.938;9.502;2024-03-08T13:34:17;0.60;;;0.60;;
60969;SDS011;46841;48.938;9.502;2024-03-08T13:36:43;0.60;;;0.60;;
60969;SDS011;46841;48.938;9.502;2024-03-08T13:39:10;0.60;;;0.60;;
60969;SDS011;46841;48.938;9.502;2024-03-08T13:41:43;0.50;;;0.50;;
60969;SDS011;46841;48.938;9.502;2024-03-08T13:44:10;0.50;;;0.50;;
60969;SDS011;46841;48.938;9.502;2024-03-08T13:46:35;0.60;;;0.60;;
60969;SDS011;46841;48.938;9.502;2024-03-08T13:49:04;0.60;;;0.60;;
60969;SDS011;46841;48.938;9.502;2024-03-08T13:51:34;0.55;;;0.55;;
60969;SDS011;46841;48.938;9.502;2024-03-08T13:54:00;0.60;;;0.60;;
60969;SDS011;46841;48.938;9.502;2024-03-08T13:56:29;0.60;;;0.60;;
60969;SDS011;46841;48.938;9.502;2024-03-08T13:58:57;0.60;;;0.60;;
60969;SDS011;46841;48.938;9.502;2024-03-08T14:01:24;0.60;;;0.60;;
60969;SDS011;46841;48.938;9.502;2024-03-08T14:03:50;0.60;;;0.60;;
60969;SDS011;46841;48.938;9.502;2024-03-08T14:06:16;0.60;;;0.60;;
60969;SDS011;46841;48.938;9.502;2024-03-08T14:08:41;0.70;;;0.70;;
60969;SDS011;46841;48.938;9.502;2024-03-08T14:11:07;0.70;;;0.70;;
60969;SDS011;46841;48.938;9.502;2024-03-08T14:13:40;0.60;;;0.60;;
60969;SDS011;46841;48.938;9.502;2024-03-08T14:16:07;0.70;;;0.70;;
60969;SDS011;46841;48.938;9.502;2024-03-08T14:18:35;0.70;;;0.70;;
60969;SDS011;46841;48.938;9.502;2024-03-08T14:21:03;0.70;;;0.70;;
60969;SDS011;46841;48.938;9.502;2024-03-08T14:23:32;0.70;;;0.70;;
60969;SDS011;46841;48.938;9.502;2024-03-08T14:25:58;0.80;;;0.80;;
60969;SDS011;46841;48.938;9.502;2024-03-08T14:28:25;0.70;;;0.70;;
60969;SDS011;46841;48.938;9.502;2024-03-08T14:30:52;0.60;;;0.60;;
60969;SDS011;46841;48.938;9.502;2024-03-08T14:33:18;0.70;;;0.70;;
60969;SDS011;46841;48.938;9.502;2024-03-08T14:35:44;0.70;;;0.70;;
60969;SDS011;46841;48.938;9.502;2024-03-08T14:38:12;0.70;;;0.70;;
60969;SDS011;46841;48.938;9.502;2024-03-08T14:40:38;0.70;;;0.70;;
60969;SDS011;46841;48.938;9.502;2024-03-08T14:43:04;0.70;;;0.70;;
60969;SDS011;46841;48.938;9.502;2024-03-08T14:45:30;0.70;;;0.70;;
60969;SDS011;46841;48.938;9.502;2024-03-08T14:47:58;0.70;;;0.70;;
60969;SDS011;46841;48.938;9.502;2024-03-08T14:50:24;0.70;;;0.70;;
60969;SDS011;46841;48.938;9.502;2024-03-08T14:52:51;0.77;;;0.77;;
60969;SDS011;46841;48.938;9.502;2024-03-08T14:55:20;0.70;;;0.70;;
60969;SDS011;46841;48.938;9.502;2024-03-08T14:57:47;0.60;;;0.60;;
60969;SDS011;46841;48.938;9.502;2024-03-08T15:00:17;0.70;;;0.70;;
60969;SDS011;46841;48.938;9.502;2024-03-08T15:02:52;0.70;;;0.70;;
60969;SDS011;46841;48.938;9.502;2024-03-08T15:07:51;0.63;;;0.63;;
60969;SDS011;46841;48.938;9.502;2024-03-08T15:10:19;0.70;;;0.70;;
60969;SDS011;46841;48.938;9.502;2024-03-08T15:12:48;0.65;;;0.65;;
60969;SDS011;46841;48.938;9.502;2024-03-08T15:15:13;0.60;;;0.60;;
60969;SDS011;46841;48.938;9.502;2024-03-08T15:17:45;0.70;;;0.70;;
60969;SDS011;46841;48.938;9.502;2024-03-08T15:20:15;0.70;;;0.70;;
60969;SDS011;46841;48.938;9.502;2024-03-08T15:22:46;0.70;;;0.70;;